This is the latest recevied weather packets stored in our database for station/object PY2KO-13. If no packets are shown the sender has not sent any weather packets the latest 10 day(s).
| Time | Temp. | Humidity | Pressure | Rain* | Wind** | Luminosity | Snow |
|---|---|---|---|---|---|---|---|
| 1777529705 | 20° C | 86% | 1019.9 hPa | - | - | - | - |
| 1777527905 | 19.44° C | 91% | 1020.1 hPa | - | - | - | - |
| 1777526105 | 19.44° C | 89% | 1020 hPa | - | - | - | - |
| 1777524305 | 20° C | 89% | 1019.6 hPa | - | - | - | - |
| 1777522504 | 20.56° C | 84% | 1019.4 hPa | - | - | - | - |
| 1777520706 | 21.11° C | 81% | 1020 hPa | - | - | - | - |
| 1777518905 | 20.56° C | 87% | 1019.3 hPa | - | - | - | - |
| 1777517105 | 20.56° C | 82% | 1019.2 hPa | - | - | - | - |
| 1777515304 | 21.11° C | 79% | 1019.4 hPa | - | - | - | - |
| 1777513504 | 21.11° C | 79% | 1019.9 hPa | - | - | - | - |
| 1777511705 | 21.11° C | 77% | 1019.8 hPa | - | - | - | - |
| 1777509905 | 20.56° C | 78% | 1019.2 hPa | - | - | - | - |
| 1777508104 | 20° C | 86% | 1019.3 hPa | - | - | - | - |
| 1777506305 | 20.56° C | 83% | 1019.3 hPa | - | - | - | - |
| 1777504506 | 21.11° C | 84% | 1018.6 hPa | - | - | - | - |
| 1777502705 | 21.11° C | 82% | 1018.7 hPa | - | - | - | - |
| 1777500905 | 21.11° C | 83% | 1017.9 hPa | - | - | - | - |
| 1777499105 | 20.56° C | 85% | 1017.9 hPa | - | - | - | - |
| 1777497305 | 20° C | 89% | 1018.7 hPa | - | - | - | - |
| 1777495505 | 19.44° C | 91% | 1018.8 hPa | - | - | - | - |
| 1777491905 | 20° C | 88% | 1018.2 hPa | - | - | - | - |
| 1777490104 | 21.11° C | 83% | 1017.5 hPa | - | - | - | - |
| 1777488305 | 21.67° C | 84% | 1017 hPa | - | - | - | - |
| 1777486505 | 22.78° C | 85% | 1016.3 hPa | - | - | - | - |
| 1777484705 | 23.33° C | 86% | 1015.9 hPa | - | - | - | - |
* Rain since midnight (hover to see other rain measurements)
** Current wind speed in m/s (hover to see current wind gust speed)